createdAt,value
2023-02-01T00:00:35.410Z,5.70
2023-02-01T00:03:02.826Z,5.70
2023-02-01T00:05:29.986Z,5.60
2023-02-01T00:07:57.142Z,5.60
2023-02-01T00:10:24.565Z,5.50
2023-02-01T00:12:51.980Z,5.50
2023-02-01T00:15:19.169Z,5.50
2023-02-01T00:17:46.363Z,5.60
2023-02-01T00:20:13.571Z,5.60
2023-02-01T00:22:40.836Z,5.60
2023-02-01T00:25:08.471Z,5.70
2023-02-01T00:27:35.723Z,5.80
2023-02-01T00:30:04.503Z,5.80
2023-02-01T00:32:33.014Z,5.80
2023-02-01T00:35:00.225Z,5.70
2023-02-01T00:37:27.514Z,5.70
2023-02-01T00:39:56.752Z,5.70
2023-02-01T00:42:24.020Z,5.60
2023-02-01T00:44:51.202Z,5.60
2023-02-01T00:47:18.412Z,5.60
2023-02-01T00:49:46.050Z,5.50
2023-02-01T00:52:13.251Z,5.60
2023-02-01T00:54:40.379Z,5.60
2023-02-01T00:57:07.681Z,5.70
2023-02-01T00:59:34.856Z,5.80
2023-02-01T01:02:02.189Z,5.80
2023-02-01T01:04:29.581Z,5.80
2023-02-01T01:06:56.833Z,5.90
2023-02-01T01:09:23.932Z,5.90
2023-02-01T01:11:52.254Z,6.00
2023-02-01T01:14:19.430Z,6.10
2023-02-01T01:16:46.619Z,6.10
2023-02-01T01:19:14.201Z,6.10
2023-02-01T01:21:41.433Z,6.10
2023-02-01T01:24:08.642Z,6.10
2023-02-01T01:26:35.961Z,6.10
2023-02-01T01:29:03.885Z,6.10
2023-02-01T01:31:32.933Z,6.20
2023-02-01T01:34:01.405Z,6.20
2023-02-01T01:36:30.618Z,6.20
2023-02-01T01:38:58.336Z,6.20
2023-02-01T01:41:29.937Z,6.20
2023-02-01T01:44:05.677Z,6.20
2023-02-01T01:46:36.509Z,6.10
2023-02-01T01:49:27.027Z,6.10
2023-02-01T01:51:58.124Z,6.00
2023-02-01T01:54:30.378Z,5.90
2023-02-01T01:57:07.779Z,5.80
2023-02-01T01:59:37.630Z,5.60
2023-02-01T02:02:05.027Z,5.70
2023-02-01T02:04:34.601Z,5.70
2023-02-01T02:07:07.882Z,5.70
2023-02-01T02:09:35.398Z,5.80
2023-02-01T02:12:02.560Z,5.80
2023-02-01T02:14:30.839Z,5.70
2023-02-01T02:17:28.103Z,5.70
2023-02-01T02:20:33.850Z,5.80
2023-02-01T02:23:32.207Z,5.70
2023-02-01T02:26:19.314Z,5.70
2023-02-01T02:29:12.463Z,5.70
2023-02-01T02:32:13.992Z,5.70
2023-02-01T02:34:58.553Z,5.70
2023-02-01T02:38:05.624Z,5.70
2023-02-01T02:40:46.834Z,5.60
2023-02-01T02:43:53.292Z,5.60
2023-02-01T02:47:06.491Z,5.60
2023-02-01T02:50:05.715Z,5.40
2023-02-01T02:52:57.163Z,5.40
2023-02-01T02:55:28.074Z,5.40
2023-02-01T02:58:17.363Z,5.40
2023-02-01T03:01:06.608Z,5.50
2023-02-01T03:03:58.983Z,5.40
2023-02-01T03:06:26.494Z,5.40
2023-02-01T03:08:57.930Z,5.40
2023-02-01T03:11:46.256Z,5.40
2023-02-01T03:14:16.369Z,5.40
2023-02-01T03:16:55.972Z,5.30
2023-02-01T03:19:29.683Z,5.40
2023-02-01T03:22:05.073Z,5.40
2023-02-01T03:24:56.562Z,5.40
2023-02-01T03:27:37.048Z,5.40
2023-02-01T03:30:21.046Z,5.40
2023-02-01T03:33:12.512Z,5.40
2023-02-01T03:35:49.663Z,5.40
2023-02-01T03:38:45.175Z,5.40
2023-02-01T03:41:39.699Z,5.40
2023-02-01T03:44:36.632Z,5.40
2023-02-01T03:47:10.164Z,5.60
2023-02-01T03:49:45.427Z,5.60
2023-02-01T03:52:23.875Z,5.70
2023-02-01T03:54:52.731Z,5.60
2023-02-01T03:57:26.543Z,5.60
2023-02-01T03:59:53.965Z,5.50
2023-02-01T04:02:22.161Z,5.50
2023-02-01T04:04:49.600Z,5.50
2023-02-01T04:07:19.875Z,5.60
2023-02-01T04:09:47.105Z,5.60
2023-02-01T04:12:14.201Z,5.60
2023-02-01T04:14:41.483Z,5.70
2023-02-01T04:17:08.723Z,5.70
2023-02-01T04:19:35.952Z,5.80
2023-02-01T04:22:03.154Z,5.80
2023-02-01T04:24:30.361Z,5.80
2023-02-01T04:26:57.577Z,5.80
2023-02-01T04:29:24.856Z,5.80
2023-02-01T04:31:52.060Z,5.70
2023-02-01T04:34:19.493Z,5.80
2023-02-01T04:36:47.433Z,5.80
2023-02-01T04:39:14.923Z,5.80
2023-02-01T04:41:42.286Z,5.80
2023-02-01T04:44:15.594Z,5.80
2023-02-01T04:46:43.365Z,5.90
2023-02-01T04:49:11.994Z,5.90
2023-02-01T04:51:39.907Z,5.90
2023-02-01T04:54:07.456Z,5.90
2023-02-01T04:56:38.427Z,5.90
2023-02-01T04:59:06.327Z,5.90
2023-02-01T05:01:34.210Z,6.00
2023-02-01T05:04:01.470Z,6.00
2023-02-01T05:06:28.695Z,6.00
2023-02-01T05:08:55.905Z,6.00
2023-02-01T05:11:43.005Z,6.10
2023-02-01T05:14:10.184Z,6.10
2023-02-01T05:16:37.276Z,6.10
2023-02-01T05:19:04.579Z,6.20
2023-02-01T05:21:31.675Z,6.30
2023-02-01T05:24:18.906Z,6.20
2023-02-01T05:26:47.942Z,6.20
2023-02-01T05:29:15.914Z,6.20
2023-02-01T05:31:45.161Z,6.20
2023-02-01T05:34:12.676Z,6.20
2023-02-01T05:36:39.986Z,6.20
2023-02-01T05:39:07.308Z,6.30
2023-02-01T05:41:34.740Z,6.20
2023-02-01T05:44:01.896Z,6.20
2023-02-01T05:46:29.372Z,6.20
2023-02-01T05:48:56.624Z,6.30
2023-02-01T05:51:23.875Z,6.30
2023-02-01T05:53:51.094Z,6.20
2023-02-01T05:56:18.313Z,6.10
2023-02-01T05:58:45.459Z,6.10
2023-02-01T06:01:12.753Z,6.10
2023-02-01T06:03:39.914Z,6.20
2023-02-01T06:06:07.321Z,6.20
2023-02-01T06:08:34.558Z,6.10
2023-02-01T06:11:05.014Z,6.10
2023-02-01T06:13:34.562Z,6.00
2023-02-01T06:16:04.281Z,6.10
2023-02-01T06:18:31.792Z,6.10
2023-02-01T06:21:03.273Z,6.20
2023-02-01T06:23:31.790Z,6.20
2023-02-01T06:26:07.161Z,6.20
2023-02-01T06:28:35.369Z,6.30
2023-02-01T06:31:10.241Z,6.30
2023-02-01T06:33:38.096Z,6.40
2023-02-01T06:36:07.719Z,6.30
2023-02-01T06:38:36.119Z,6.30
2023-02-01T06:41:04.692Z,6.30
2023-02-01T06:43:33.844Z,6.30
2023-02-01T06:46:03.289Z,6.40
2023-02-01T06:48:31.494Z,6.40
2023-02-01T06:50:58.696Z,6.50
2023-02-01T06:53:26.195Z,6.50
2023-02-01T06:55:56.493Z,6.40
2023-02-01T06:58:24.560Z,6.40
2023-02-01T07:00:52.120Z,6.40
2023-02-01T07:03:19.395Z,6.40
2023-02-01T07:05:46.515Z,6.40
2023-02-01T07:08:13.896Z,6.40
2023-02-01T07:10:41.269Z,6.40
2023-02-01T07:13:08.616Z,6.40
2023-02-01T07:15:35.790Z,6.30
2023-02-01T07:18:03.176Z,6.30
2023-02-01T07:20:30.275Z,6.30
2023-02-01T07:22:58.154Z,6.40
2023-02-01T07:25:25.914Z,6.40
2023-02-01T07:27:53.119Z,6.40
2023-02-01T07:30:20.308Z,6.30
2023-02-01T07:32:47.730Z,6.30
2023-02-01T07:35:15.270Z,6.30
2023-02-01T07:37:42.495Z,6.30
2023-02-01T07:40:10.456Z,6.30
2023-02-01T07:42:37.723Z,6.30
2023-02-01T07:45:20.348Z,6.30
2023-02-01T07:47:48.134Z,6.40
2023-02-01T07:50:15.435Z,6.40
2023-02-01T07:52:43.024Z,6.40
2023-02-01T07:55:10.855Z,6.40
2023-02-01T07:57:38.076Z,6.50
2023-02-01T08:00:25.918Z,6.50
2023-02-01T08:02:53.252Z,6.50
2023-02-01T08:05:20.423Z,6.50
2023-02-01T08:07:51.235Z,6.40
2023-02-01T08:10:19.615Z,6.50
2023-02-01T08:12:48.848Z,6.50
2023-02-01T08:15:16.942Z,6.50
2023-02-01T08:17:52.114Z,6.50
2023-02-01T08:20:20.335Z,6.50
2023-02-01T08:22:47.546Z,6.50
2023-02-01T08:25:14.823Z,6.60
2023-02-01T08:27:42.108Z,6.60
2023-02-01T08:30:10.645Z,6.70
2023-02-01T08:32:37.886Z,6.70
2023-02-01T08:35:05.763Z,6.70
2023-02-01T08:37:33.274Z,6.80
2023-02-01T08:40:00.657Z,6.80
2023-02-01T08:42:47.841Z,6.80
2023-02-01T08:45:15.110Z,6.90
2023-02-01T08:47:42.196Z,7.00
2023-02-01T08:50:10.397Z,7.00
2023-02-01T08:52:38.355Z,7.10
2023-02-01T08:55:06.836Z,7.10
2023-02-01T08:57:34.996Z,7.10
2023-02-01T09:00:03.291Z,7.20
2023-02-01T09:02:30.446Z,7.20
2023-02-01T09:05:01.036Z,7.20
2023-02-01T09:07:28.415Z,7.20
2023-02-01T09:09:57.325Z,7.20
2023-02-01T09:12:24.806Z,7.30
2023-02-01T09:14:51.968Z,7.30
2023-02-01T09:17:19.222Z,7.40
2023-02-01T09:19:46.467Z,7.40
2023-02-01T09:22:13.669Z,7.40
2023-02-01T09:24:40.878Z,7.50
2023-02-01T09:27:08.275Z,7.50
2023-02-01T09:29:35.453Z,7.50
2023-02-01T09:32:04.452Z,7.60
2023-02-01T09:34:32.167Z,7.60
2023-02-01T09:36:59.476Z,7.70
2023-02-01T09:39:26.680Z,7.60
2023-02-01T09:42:24.094Z,7.60
2023-02-01T09:45:11.154Z,7.70
2023-02-01T09:47:46.635Z,7.70
2023-02-01T09:50:20.604Z,7.70
2023-02-01T09:53:19.105Z,7.80
2023-02-01T09:55:50.525Z,7.90
2023-02-01T09:58:43.223Z,7.90
2023-02-01T10:01:23.462Z,8.00
2023-02-01T10:03:56.941Z,8.10
2023-02-01T10:06:54.415Z,8.20
2023-02-01T10:10:01.596Z,8.30
2023-02-01T10:12:52.315Z,8.30
2023-02-01T10:15:59.506Z,8.40
2023-02-01T10:19:06.464Z,8.50
2023-02-01T10:21:47.597Z,8.70
2023-02-01T10:24:22.373Z,8.80
2023-02-01T10:27:02.388Z,8.90
2023-02-01T10:29:38.157Z,9.10
2023-02-01T10:32:16.432Z,9.30
2023-02-01T10:34:47.288Z,9.30
2023-02-01T10:37:34.981Z,9.30
2023-02-01T10:40:24.198Z,9.50
2023-02-01T10:42:56.160Z,9.50
2023-02-01T10:45:27.087Z,9.70
2023-02-01T10:47:57.536Z,9.80
2023-02-01T10:50:54.431Z,9.90
2023-02-01T10:53:30.451Z,10.00
2023-02-01T10:55:58.919Z,10.00
2023-02-01T10:58:33.878Z,10.10
2023-02-01T11:01:06.363Z,10.20
2023-02-01T11:03:38.635Z,10.20
2023-02-01T11:06:28.335Z,10.50
2023-02-01T11:08:58.931Z,10.90
2023-02-01T11:11:26.756Z,11.20
2023-02-01T11:14:00.328Z,11.30
2023-02-01T11:16:35.815Z,11.50
2023-02-01T11:19:04.290Z,11.50
2023-02-01T11:21:31.805Z,11.40
2023-02-01T11:24:05.077Z,11.40
2023-02-01T11:26:34.130Z,11.30
2023-02-01T11:29:05.571Z,11.40
2023-02-01T11:31:35.656Z,11.40
2023-02-01T11:34:25.812Z,11.40
2023-02-01T11:36:56.556Z,11.40
2023-02-01T11:39:43.713Z,11.40
2023-02-01T11:42:16.436Z,11.50
2023-02-01T11:44:46.255Z,11.60
2023-02-01T11:47:40.105Z,11.60
2023-02-01T11:50:18.487Z,11.70
2023-02-01T11:53:14.009Z,11.70
2023-02-01T11:55:53.498Z,11.70
2023-02-01T11:59:00.531Z,11.90
2023-02-01T12:01:53.855Z,12.00
2023-02-01T12:05:00.944Z,12.10
2023-02-01T12:08:07.986Z,12.10
2023-02-01T12:11:15.075Z,12.00
2023-02-01T12:14:02.144Z,12.00
2023-02-01T12:17:09.256Z,12.00
2023-02-01T12:20:07.767Z,12.00
2023-02-01T12:23:00.955Z,11.90
2023-02-01T12:25:53.196Z,12.00
2023-02-01T12:29:00.255Z,12.10
2023-02-01T12:31:55.938Z,12.20
2023-02-01T12:34:55.166Z,12.20
2023-02-01T12:37:56.852Z,12.30
2023-02-01T12:40:50.745Z,12.30
2023-02-01T12:43:34.293Z,12.30
2023-02-01T12:46:13.532Z,12.40
2023-02-01T12:48:51.034Z,12.40
2023-02-01T12:51:22.526Z,12.40
2023-02-01T12:54:05.962Z,12.30
2023-02-01T12:56:53.099Z,12.40
2023-02-01T12:59:43.583Z,12.40
2023-02-01T13:02:34.357Z,12.40
2023-02-01T13:05:22.158Z,12.40
2023-02-01T13:08:03.407Z,12.40
2023-02-01T13:10:34.303Z,12.40
2023-02-01T13:13:24.101Z,12.40
2023-02-01T13:16:02.914Z,12.40
2023-02-01T13:18:38.182Z,12.40
2023-02-01T13:21:09.706Z,12.30
2023-02-01T13:23:40.188Z,12.10
2023-02-01T13:26:07.645Z,12.10
2023-02-01T13:29:01.592Z,12.10
2023-02-01T13:32:08.556Z,12.00
2023-02-01T13:35:17.236Z,12.00
2023-02-01T13:38:21.315Z,12.00
2023-02-01T13:41:29.136Z,12.20
2023-02-01T13:44:02.965Z,12.40
2023-02-01T13:46:31.246Z,12.30
2023-02-01T13:49:02.189Z,12.40
2023-02-01T13:51:47.009Z,12.50
2023-02-01T13:54:37.428Z,12.60
2023-02-01T13:57:07.575Z,12.70
2023-02-01T13:59:56.135Z,12.80
2023-02-01T14:03:02.815Z,12.90
2023-02-01T14:05:49.934Z,12.90
2023-02-01T14:08:39.435Z,12.90
2023-02-01T14:11:06.855Z,12.80
2023-02-01T14:13:42.195Z,12.70
2023-02-01T14:16:15.239Z,12.80
2023-02-01T14:18:57.455Z,12.80
2023-02-01T14:21:34.468Z,12.50
2023-02-01T14:24:13.836Z,12.40
2023-02-01T14:27:02.586Z,12.30
2023-02-01T14:29:37.617Z,12.20
2023-02-01T14:32:20.886Z,12.10
2023-02-01T14:34:55.714Z,12.00
2023-02-01T14:37:28.696Z,12.00
2023-02-01T14:40:26.087Z,11.90
2023-02-01T14:42:54.720Z,11.70
2023-02-01T14:45:25.586Z,11.50
2023-02-01T14:47:58.511Z,11.40
2023-02-01T14:50:43.196Z,11.30
2023-02-01T14:53:25.818Z,11.30
2023-02-01T14:56:15.078Z,11.20
2023-02-01T14:59:10.903Z,11.10
2023-02-01T15:01:40.191Z,11.10
2023-02-01T15:04:19.434Z,11.00
2023-02-01T15:06:58.285Z,11.00
2023-02-01T15:09:48.443Z,11.00
2023-02-01T15:12:27.868Z,11.00
2023-02-01T15:15:18.281Z,11.10
2023-02-01T15:18:05.413Z,11.10
2023-02-01T15:20:34.190Z,11.00
2023-02-01T15:23:08.911Z,11.00
2023-02-01T15:25:39.759Z,11.10
2023-02-01T15:28:13.036Z,11.00
2023-02-01T15:30:40.654Z,11.00
2023-02-01T15:33:16.857Z,11.00
2023-02-01T15:35:47.802Z,11.00
2023-02-01T15:38:42.860Z,10.90
2023-02-01T15:41:22.944Z,10.90
2023-02-01T15:44:17.068Z,10.80
2023-02-01T15:46:48.581Z,10.80
2023-02-01T15:49:25.258Z,10.80
2023-02-01T15:51:53.238Z,10.80
2023-02-01T15:55:00.379Z,10.80
2023-02-01T15:57:36.090Z,10.70
2023-02-01T16:00:08.879Z,10.70
2023-02-01T16:02:51.984Z,10.70
2023-02-01T16:05:40.909Z,10.70
2023-02-01T16:08:24.798Z,10.70
2023-02-01T16:10:55.095Z,10.80
2023-02-01T16:13:22.639Z,10.80
2023-02-01T16:15:50.576Z,10.70
2023-02-01T16:18:19.121Z,10.80
2023-02-01T16:20:48.277Z,10.80
2023-02-01T16:23:15.641Z,10.80
2023-02-01T16:25:43.084Z,10.80
2023-02-01T16:28:10.373Z,10.80
2023-02-01T16:30:37.918Z,10.80
2023-02-01T16:33:06.435Z,10.70
2023-02-01T16:35:36.788Z,10.70
2023-02-01T16:38:09.816Z,10.60
2023-02-01T16:40:37.927Z,10.60
2023-02-01T16:43:26.646Z,10.60
2023-02-01T16:45:56.404Z,10.60
2023-02-01T16:48:29.389Z,10.50
2023-02-01T16:51:01.055Z,10.50
2023-02-01T16:53:31.824Z,10.50
2023-02-01T16:56:00.182Z,10.40
2023-02-01T16:58:28.305Z,10.40
2023-02-01T17:00:55.940Z,10.40
2023-02-01T17:03:23.588Z,10.40
2023-02-01T17:05:54.268Z,10.30
2023-02-01T17:08:42.753Z,10.30
2023-02-01T17:11:12.301Z,10.30
2023-02-01T17:13:41.935Z,10.20
2023-02-01T17:16:30.586Z,10.10
2023-02-01T17:19:04.464Z,10.10
2023-02-01T17:21:36.162Z,10.00
2023-02-01T17:24:03.932Z,9.90
2023-02-01T17:26:31.012Z,9.80
2023-02-01T17:28:58.231Z,9.80
2023-02-01T17:31:25.432Z,9.80
2023-02-01T17:33:52.684Z,9.70
2023-02-01T17:36:19.913Z,9.70
2023-02-01T17:38:56.679Z,9.60
2023-02-01T17:41:27.283Z,9.60
2023-02-01T17:43:54.523Z,9.50
2023-02-01T17:46:27.349Z,9.50
2023-02-01T17:48:55.636Z,9.50
2023-02-01T17:51:28.158Z,9.40
2023-02-01T17:53:55.626Z,9.40
2023-02-01T17:56:25.097Z,9.40
2023-02-01T17:58:52.679Z,9.40
2023-02-01T18:01:24.534Z,9.30
2023-02-01T18:03:52.163Z,9.30
2023-02-01T18:06:23.649Z,9.30
2023-02-01T18:08:51.235Z,9.30
2023-02-01T18:11:20.714Z,9.20
2023-02-01T18:13:50.483Z,9.20
2023-02-01T18:16:24.251Z,9.00
2023-02-01T18:18:51.426Z,8.90
2023-02-01T18:21:21.231Z,8.80
2023-02-01T18:23:49.667Z,8.70
2023-02-01T18:26:18.644Z,8.70
2023-02-01T18:28:45.908Z,8.60
2023-02-01T18:31:34.073Z,8.60
2023-02-01T18:34:01.533Z,8.50
2023-02-01T18:36:30.564Z,8.50
2023-02-01T18:38:57.976Z,8.50
2023-02-01T18:41:26.152Z,8.60
2023-02-01T18:43:53.697Z,8.60
2023-02-01T18:46:22.971Z,8.70
2023-02-01T18:48:50.363Z,8.70
2023-02-01T18:51:20.276Z,8.80
2023-02-01T18:53:48.736Z,8.90
2023-02-01T18:56:18.562Z,8.90
2023-02-01T18:58:46.115Z,9.00
2023-02-01T19:01:19.844Z,9.00
2023-02-01T19:03:56.648Z,9.00
2023-02-01T19:06:30.334Z,9.00
2023-02-01T19:08:57.473Z,9.00
2023-02-01T19:11:25.153Z,9.00
2023-02-01T19:13:52.345Z,9.00
2023-02-01T19:16:19.584Z,9.00
2023-02-01T19:18:52.153Z,8.90
2023-02-01T19:21:19.516Z,8.90
2023-02-01T19:23:46.660Z,8.90
2023-02-01T19:26:16.254Z,8.90
2023-02-01T19:28:47.034Z,8.90
2023-02-01T19:31:14.983Z,8.90
2023-02-01T19:33:42.193Z,8.80
2023-02-01T19:36:11.052Z,8.80
2023-02-01T19:38:38.942Z,8.80
2023-02-01T19:41:06.427Z,8.70
2023-02-01T19:43:33.762Z,8.60
2023-02-01T19:46:03.143Z,8.60
2023-02-01T19:48:31.489Z,8.50
2023-02-01T19:50:59.521Z,8.50
2023-02-01T19:53:28.152Z,8.40
2023-02-01T19:55:57.012Z,8.50
2023-02-01T19:58:25.797Z,8.40
2023-02-01T20:00:54.557Z,8.40
2023-02-01T20:03:22.776Z,8.30
2023-02-01T20:05:52.799Z,8.30
2023-02-01T20:08:20.232Z,8.40
2023-02-01T20:10:47.452Z,8.40
2023-02-01T20:13:15.314Z,8.40
2023-02-01T20:15:42.970Z,8.30
2023-02-01T20:18:10.510Z,8.20
2023-02-01T20:20:37.917Z,8.20
2023-02-01T20:23:06.452Z,8.20
2023-02-01T20:25:36.131Z,8.10
2023-02-01T20:28:03.636Z,8.00
2023-02-01T20:30:32.421Z,8.00
2023-02-01T20:32:59.555Z,7.90
2023-02-01T20:35:27.044Z,7.90
2023-02-01T20:37:56.741Z,7.90
2023-02-01T20:40:24.033Z,7.90
2023-02-01T20:42:51.134Z,7.90
2023-02-01T20:45:18.476Z,7.90
2023-02-01T20:47:52.696Z,7.90
2023-02-01T20:50:20.165Z,7.90
2023-02-01T20:52:47.498Z,7.90
2023-02-01T20:55:14.686Z,7.80
2023-02-01T20:57:42.446Z,7.80
2023-02-01T21:00:10.442Z,7.80
2023-02-01T21:02:38.288Z,7.60
2023-02-01T21:05:06.380Z,7.50
2023-02-01T21:07:33.748Z,7.40
2023-02-01T21:10:00.899Z,7.40
2023-02-01T21:12:28.137Z,7.40
2023-02-01T21:14:55.461Z,7.50
2023-02-01T21:17:23.193Z,7.50
2023-02-01T21:19:50.490Z,7.50
2023-02-01T21:22:17.632Z,7.40
2023-02-01T21:24:45.683Z,7.40
2023-02-01T21:27:13.841Z,7.40
2023-02-01T21:29:41.128Z,7.40
2023-02-01T21:32:09.432Z,7.40
2023-02-01T21:34:36.896Z,7.40
2023-02-01T21:37:04.275Z,7.40
2023-02-01T21:39:31.581Z,7.30
2023-02-01T21:42:18.704Z,7.30
2023-02-01T21:44:47.489Z,7.30
2023-02-01T21:47:17.425Z,7.20
2023-02-01T21:49:47.218Z,7.30
2023-02-01T21:52:16.247Z,7.40
2023-02-01T21:54:43.698Z,7.30
2023-02-01T21:57:14.041Z,7.30
2023-02-01T21:59:42.772Z,7.30
2023-02-01T22:02:14.778Z,7.20
2023-02-01T22:04:42.989Z,7.30
2023-02-01T22:07:11.002Z,7.30
2023-02-01T22:09:40.527Z,7.20
2023-02-01T22:12:09.839Z,7.20
2023-02-01T22:14:37.038Z,7.30
2023-02-01T22:17:04.623Z,7.30
2023-02-01T22:19:31.819Z,7.30
2023-02-01T22:21:58.943Z,7.40
2023-02-01T22:24:26.259Z,7.50
2023-02-01T22:26:53.391Z,7.50
2023-02-01T22:29:20.638Z,7.50
2023-02-01T22:31:48.277Z,7.50
2023-02-01T22:34:15.891Z,7.50
2023-02-01T22:36:43.264Z,7.60
2023-02-01T22:39:10.765Z,7.50
2023-02-01T22:41:38.213Z,7.50
2023-02-01T22:44:05.982Z,7.50
2023-02-01T22:46:33.736Z,7.50
2023-02-01T22:49:01.087Z,7.50
2023-02-01T22:51:30.744Z,7.50
2023-02-01T22:53:58.809Z,7.60
2023-02-01T22:56:35.811Z,7.60
2023-02-01T22:59:07.528Z,7.60
2023-02-01T23:01:35.499Z,7.60
2023-02-01T23:04:05.687Z,7.60
2023-02-01T23:06:33.943Z,7.60
2023-02-01T23:09:04.411Z,7.60
2023-02-01T23:11:31.931Z,7.60
2023-02-01T23:13:59.167Z,7.50
2023-02-01T23:16:27.425Z,7.50
2023-02-01T23:18:54.805Z,7.50
2023-02-01T23:21:23.475Z,7.50
2023-02-01T23:23:54.112Z,7.50
2023-02-01T23:26:23.039Z,7.50
2023-02-01T23:28:52.320Z,7.40
2023-02-01T23:31:19.796Z,7.30
2023-02-01T23:33:49.080Z,7.30
2023-02-01T23:36:17.325Z,7.40
2023-02-01T23:38:45.521Z,7.30
2023-02-01T23:41:14.760Z,7.20
2023-02-01T23:44:02.930Z,7.20
2023-02-01T23:46:41.323Z,7.20
2023-02-01T23:49:09.890Z,7.20
2023-02-01T23:51:37.733Z,7.20
2023-02-01T23:54:06.041Z,7.20
2023-02-01T23:56:37.333Z,7.20
2023-02-01T23:59:07.441Z,7.10
